createdAt,value
2023-04-19T00:02:09.864Z,69.87
2023-04-19T00:04:39.181Z,70.02
2023-04-19T00:07:07.757Z,68.97
2023-04-19T00:09:35.891Z,69.33
2023-04-19T00:12:05.560Z,69.36
2023-04-19T00:14:33.684Z,68.81
2023-04-19T00:17:01.941Z,68.25
2023-04-19T00:19:30.104Z,67.46
2023-04-19T00:21:58.213Z,67.23
2023-04-19T00:24:26.427Z,68.45
2023-04-19T00:26:54.522Z,67.97
2023-04-19T00:29:24.122Z,68.24
2023-04-19T00:31:53.010Z,68.44
2023-04-19T00:34:21.204Z,67.35
2023-04-19T00:36:49.297Z,67.84
2023-04-19T00:39:17.635Z,68.49
2023-04-19T00:41:45.918Z,68.20
2023-04-19T00:44:14.284Z,68.01
2023-04-19T00:46:45.232Z,67.26
2023-04-19T00:49:13.468Z,67.65
2023-04-19T00:51:42.691Z,67.11
2023-04-19T00:54:11.072Z,66.66
2023-04-19T00:56:40.019Z,67.82
2023-04-19T00:59:08.451Z,67.87
2023-04-19T01:01:38.174Z,67.94
2023-04-19T01:04:08.166Z,67.73
2023-04-19T01:06:38.120Z,67.46
2023-04-19T01:09:06.304Z,68.42
2023-04-19T01:11:35.328Z,68.33
2023-04-19T01:14:03.474Z,68.44
2023-04-19T01:16:33.361Z,68.24
2023-04-19T01:19:01.537Z,69.01
2023-04-19T01:21:32.481Z,69.10
2023-04-19T01:24:01.997Z,68.89
2023-04-19T01:26:30.224Z,68.99
2023-04-19T01:28:58.331Z,68.71
2023-04-19T01:31:26.483Z,69.78
2023-04-19T01:33:54.710Z,69.56
2023-04-19T01:36:22.936Z,69.77
2023-04-19T01:38:51.412Z,70.01
2023-04-19T01:41:22.720Z,69.20
2023-04-19T01:43:50.844Z,69.46
2023-04-19T01:46:18.957Z,69.93
2023-04-19T01:48:47.089Z,70.70
2023-04-19T01:51:17.311Z,70.80
2023-04-19T01:53:45.478Z,70.49
2023-04-19T01:56:13.592Z,70.62
2023-04-19T01:58:43.064Z,70.97
2023-04-19T02:01:12.646Z,70.99
2023-04-19T02:03:41.183Z,71.06
2023-04-19T02:06:13.378Z,71.90
2023-04-19T02:08:42.838Z,71.20
2023-04-19T02:11:14.362Z,71.58
2023-04-19T02:13:44.248Z,71.56
2023-04-19T02:16:12.857Z,71.50
2023-04-19T02:18:41.580Z,72.44
2023-04-19T02:21:10.982Z,72.51
2023-04-19T02:23:39.177Z,72.53
2023-04-19T02:26:07.483Z,73.30
2023-04-19T02:28:35.750Z,73.54
2023-04-19T02:31:08.349Z,73.41
2023-04-19T02:33:37.020Z,72.85
2023-04-19T02:36:05.707Z,73.36
2023-04-19T02:38:33.910Z,74.45
2023-04-19T02:41:04.284Z,74.24
2023-04-19T02:43:32.437Z,73.86
2023-04-19T02:46:00.801Z,73.25
2023-04-19T02:48:30.422Z,73.16
2023-04-19T02:50:58.999Z,73.83
2023-04-19T02:53:27.154Z,73.49
2023-04-19T02:55:55.326Z,73.64
2023-04-19T02:58:23.451Z,73.41
2023-04-19T03:00:51.623Z,73.78
2023-04-19T03:03:19.850Z,74.37
2023-04-19T03:05:49.438Z,73.91
2023-04-19T03:08:17.714Z,73.95
2023-04-19T03:10:46.031Z,73.35
2023-04-19T03:13:14.180Z,73.40
2023-04-19T03:15:42.354Z,72.93
2023-04-19T03:18:10.498Z,72.71
2023-04-19T03:20:38.612Z,72.43
2023-04-19T03:23:08.338Z,72.10
2023-04-19T03:25:36.451Z,72.20
2023-04-19T03:28:04.706Z,72.75
2023-04-19T03:30:32.842Z,73.20
2023-04-19T03:33:00.999Z,72.96
2023-04-19T03:35:30.880Z,71.90
2023-04-19T03:37:59.376Z,71.35
2023-04-19T03:40:29.016Z,71.57
2023-04-19T03:42:57.157Z,71.26
2023-04-19T03:45:25.535Z,70.87
2023-04-19T03:47:53.816Z,70.80
2023-04-19T03:50:22.000Z,70.36
2023-04-19T03:52:50.168Z,70.26
2023-04-19T03:55:18.501Z,69.36
2023-04-19T03:57:47.979Z,69.99
2023-04-19T04:00:17.136Z,69.63
2023-04-19T04:02:45.532Z,69.09
2023-04-19T04:05:14.018Z,69.42
2023-04-19T04:07:42.182Z,68.73
2023-04-19T04:10:10.926Z,68.56
2023-04-19T04:12:39.043Z,67.99
2023-04-19T04:15:10.582Z,67.37
2023-04-19T04:17:39.046Z,66.87
2023-04-19T04:20:11.761Z,67.14
2023-04-19T04:22:43.334Z,67.68
2023-04-19T04:25:12.501Z,66.17
2023-04-19T04:27:40.636Z,65.23
2023-04-19T04:30:11.439Z,65.77
2023-04-19T04:32:40.975Z,64.96
2023-04-19T04:35:11.616Z,65.23
2023-04-19T04:37:40.219Z,65.53
2023-04-19T04:40:10.041Z,64.94
2023-04-19T04:42:38.663Z,64.62
2023-04-19T04:45:10.707Z,64.77
2023-04-19T04:47:39.045Z,64.07
2023-04-19T04:50:09.170Z,63.88
2023-04-19T04:52:37.263Z,63.80
2023-04-19T04:55:07.348Z,63.85
2023-04-19T04:57:35.479Z,63.50
2023-04-19T05:00:04.978Z,62.42
2023-04-19T05:02:34.519Z,62.21
2023-04-19T05:05:03.287Z,61.33
2023-04-19T05:07:31.462Z,61.17
2023-04-19T05:09:59.546Z,59.99
2023-04-19T05:12:27.597Z,60.73
2023-04-19T05:14:55.692Z,60.24
2023-04-19T05:17:23.935Z,59.18
2023-04-19T05:19:53.657Z,58.20
2023-04-19T05:22:21.836Z,59.35
2023-04-19T05:24:50.750Z,57.00
2023-04-19T05:27:19.078Z,55.68
2023-04-19T05:29:47.188Z,54.68
2023-04-19T05:32:15.293Z,54.34
2023-04-19T05:34:43.413Z,53.97
2023-04-19T05:37:13.002Z,53.84
2023-04-19T05:39:43.572Z,53.70
2023-04-19T05:42:12.478Z,53.63
2023-04-19T05:44:40.626Z,53.70
2023-04-19T05:47:08.876Z,53.15
2023-04-19T05:49:36.975Z,52.63
2023-04-19T05:52:05.593Z,52.49
2023-04-19T05:54:36.037Z,53.21
2023-04-19T05:57:04.482Z,53.47
2023-04-19T05:59:32.670Z,53.41
2023-04-19T06:02:01.485Z,53.86
2023-04-19T06:04:30.112Z,53.16
2023-04-19T06:06:58.445Z,52.62
2023-04-19T06:09:26.580Z,52.34
2023-04-19T06:11:56.796Z,52.23
2023-04-19T06:14:25.210Z,51.72
2023-04-19T06:16:53.280Z,51.65
2023-04-19T06:19:21.876Z,52.06
2023-04-19T06:21:50.032Z,51.79
2023-04-19T06:24:18.175Z,51.54
2023-04-19T06:26:48.319Z,52.19
2023-04-19T06:29:20.301Z,51.95
2023-04-19T06:31:48.512Z,51.94
2023-04-19T06:34:17.227Z,52.29
2023-04-19T06:36:45.642Z,52.75
2023-04-19T06:39:13.807Z,52.69
2023-04-19T06:41:41.960Z,52.79
2023-04-19T06:44:10.054Z,52.96
2023-04-19T06:46:39.552Z,53.51
2023-04-19T06:49:07.713Z,53.37
2023-04-19T06:51:36.069Z,52.53
2023-04-19T06:54:04.418Z,53.34
2023-04-19T06:56:45.593Z,52.82
2023-04-19T06:59:16.529Z,52.66
2023-04-19T07:01:47.026Z,53.02
2023-04-19T07:04:16.595Z,53.72
2023-04-19T07:06:45.212Z,53.41
2023-04-19T07:09:13.346Z,53.02
2023-04-19T07:11:41.431Z,53.25
2023-04-19T07:14:09.758Z,54.23
2023-04-19T07:16:38.030Z,54.49
2023-04-19T07:19:07.683Z,54.31
2023-04-19T07:21:35.867Z,54.04
2023-04-19T07:24:04.145Z,53.27
2023-04-19T07:26:32.267Z,51.04
2023-04-19T07:29:00.636Z,50.54
2023-04-19T07:31:29.736Z,50.09
2023-04-19T07:33:57.955Z,50.54
2023-04-19T07:36:27.754Z,51.35
2023-04-19T07:38:55.998Z,51.99
2023-04-19T07:41:24.170Z,51.90
2023-04-19T07:43:52.308Z,50.85
2023-04-19T07:46:20.592Z,51.37
2023-04-19T07:48:48.763Z,51.64
2023-04-19T07:51:19.226Z,51.51
2023-04-19T07:53:49.183Z,51.12
2023-04-19T07:56:17.394Z,51.30
2023-04-19T07:58:50.833Z,51.78
2023-04-19T08:01:25.037Z,52.33
2023-04-19T08:03:53.586Z,52.04
2023-04-19T08:06:22.324Z,52.29
2023-04-19T08:08:51.792Z,52.59
2023-04-19T08:11:20.096Z,52.41
2023-04-19T08:14:02.911Z,52.06
2023-04-19T08:17:14.700Z,51.69
2023-04-19T08:19:23.052Z,51.61
2023-04-19T08:21:51.185Z,51.67
2023-04-19T08:24:20.569Z,51.80
2023-04-19T08:26:53.645Z,51.15
2023-04-19T08:29:22.093Z,50.33
2023-04-19T08:31:50.380Z,50.05
2023-04-19T08:34:18.689Z,49.95
2023-04-19T08:37:00.156Z,50.19
2023-04-19T08:39:34.640Z,49.68
2023-04-19T08:42:10.939Z,49.28
2023-04-19T08:44:59.019Z,49.67
2023-04-19T08:47:34.302Z,50.09
2023-04-19T08:50:17.415Z,49.62
2023-04-19T08:52:58.764Z,49.16
2023-04-19T08:55:32.679Z,49.30
2023-04-19T08:58:05.766Z,48.98
2023-04-19T09:00:41.248Z,48.76
2023-04-19T09:03:09.958Z,49.02
2023-04-19T09:05:38.573Z,48.14
2023-04-19T09:08:24.897Z,47.96
2023-04-19T09:11:00.018Z,48.42
2023-04-19T09:13:29.852Z,47.11
2023-04-19T09:16:00.349Z,47.10
2023-04-19T09:18:31.394Z,47.06
2023-04-19T09:21:01.330Z,47.38
2023-04-19T09:23:29.849Z,47.19
2023-04-19T09:26:22.297Z,46.81
2023-04-19T09:28:58.894Z,46.72
2023-04-19T09:31:47.837Z,46.57
2023-04-19T09:34:19.663Z,47.03
2023-04-19T09:36:52.441Z,46.96
2023-04-19T09:39:33.531Z,46.00
2023-04-19T09:42:03.254Z,44.97
2023-04-19T09:45:09.459Z,45.26
2023-04-19T09:47:30.050Z,44.20
2023-04-19T09:50:21.318Z,44.26
2023-04-19T09:52:53.251Z,43.50
2023-04-19T09:55:27.452Z,44.00
2023-04-19T09:57:58.119Z,43.99
2023-04-19T10:00:28.270Z,43.21
2023-04-19T10:02:59.217Z,43.45
2023-04-19T10:05:27.861Z,43.83
2023-04-19T10:08:00.157Z,43.30
2023-04-19T10:10:41.426Z,42.97
2023-04-19T10:15:52.540Z,42.75
2023-04-19T10:18:26.346Z,43.01
2023-04-19T10:21:02.439Z,43.74
2023-04-19T10:23:32.637Z,43.01
2023-04-19T10:26:00.909Z,43.32
2023-04-19T10:28:31.745Z,42.32
2023-04-19T10:31:02.673Z,42.31
2023-04-19T10:33:35.847Z,42.51
2023-04-19T10:36:05.068Z,42.93
2023-04-19T10:38:39.873Z,42.62
2023-04-19T10:41:17.065Z,42.46
2023-04-19T10:43:49.569Z,42.36
2023-04-19T10:46:38.092Z,42.95
2023-04-19T10:49:07.870Z,42.13
2023-04-19T10:51:38.637Z,41.55
2023-04-19T10:54:08.580Z,41.81
2023-04-19T10:57:04.583Z,42.39
2023-04-19T10:59:36.575Z,41.71
2023-04-19T11:02:06.771Z,41.64
2023-04-19T11:05:02.392Z,42.35
2023-04-19T11:07:38.367Z,41.97
2023-04-19T11:10:07.652Z,42.67
2023-04-19T11:12:36.021Z,43.06
2023-04-19T11:15:10.557Z,42.56
2023-04-19T11:17:39.554Z,41.86
2023-04-19T11:20:10.780Z,42.08
2023-04-19T11:22:41.408Z,42.11
2023-04-19T11:25:12.832Z,41.83
2023-04-19T11:27:42.869Z,41.46
2023-04-19T11:30:16.569Z,40.93
2023-04-19T11:32:49.371Z,41.60
2023-04-19T11:35:22.295Z,41.63
2023-04-19T11:37:51.233Z,41.76
2023-04-19T11:40:21.931Z,41.89
2023-04-19T11:42:56.603Z,42.03
2023-04-19T11:45:33.471Z,41.35
2023-04-19T11:48:07.128Z,40.80
2023-04-19T11:50:38.221Z,41.10
2023-04-19T11:53:16.027Z,41.39
2023-04-19T11:55:46.474Z,41.49
2023-04-19T11:58:33.534Z,41.44
2023-04-19T12:01:07.384Z,41.75
2023-04-19T12:03:36.174Z,42.12
2023-04-19T12:06:09.032Z,41.38
2023-04-19T12:08:39.132Z,41.85
2023-04-19T12:11:08.033Z,41.58
2023-04-19T12:13:37.338Z,41.84
2023-04-19T12:16:07.688Z,41.41
2023-04-19T12:18:48.813Z,42.28
2023-04-19T12:21:27.857Z,42.66
2023-04-19T12:23:58.084Z,44.00
2023-04-19T12:26:26.910Z,42.71
2023-04-19T12:28:55.466Z,42.83
2023-04-19T12:31:24.950Z,43.18
2023-04-19T12:33:53.665Z,43.35
2023-04-19T12:36:22.269Z,44.79
2023-04-19T12:38:50.437Z,47.93
2023-04-19T12:41:18.485Z,50.05
2023-04-19T12:43:46.470Z,49.31
2023-04-19T12:46:14.572Z,50.46
2023-04-19T12:48:44.010Z,49.07
2023-04-19T12:51:12.291Z,46.37
2023-04-19T12:53:42.427Z,45.29
2023-04-19T12:56:12.268Z,45.01
2023-04-19T12:58:40.387Z,44.85
2023-04-19T13:01:08.691Z,43.81
2023-04-19T13:03:37.462Z,42.99
2023-04-19T13:06:07.883Z,41.68
2023-04-19T13:08:44.952Z,40.54
2023-04-19T13:11:16.355Z,40.60
2023-04-19T13:13:44.463Z,40.61
2023-04-19T13:16:12.512Z,39.58
2023-04-19T13:18:40.689Z,40.24
2023-04-19T13:21:10.040Z,40.02
2023-04-19T13:23:38.115Z,40.45
2023-04-19T13:26:07.062Z,40.67
2023-04-19T13:28:36.629Z,41.61
2023-04-19T13:31:05.759Z,42.25
2023-04-19T13:33:34.150Z,41.82
2023-04-19T13:36:02.270Z,41.30
2023-04-19T13:38:31.725Z,41.27
2023-04-19T13:41:00.711Z,39.54
2023-04-19T13:43:28.765Z,38.83
2023-04-19T13:45:56.938Z,39.76
2023-04-19T13:48:27.367Z,38.16
2023-04-19T13:50:55.952Z,39.04
2023-04-19T13:53:25.215Z,39.18
2023-04-19T13:55:54.600Z,40.02
2023-04-19T13:58:24.633Z,40.43
2023-04-19T14:00:53.585Z,41.17
2023-04-19T14:03:23.601Z,40.90
2023-04-19T14:05:51.919Z,41.44
2023-04-19T14:08:20.034Z,41.53
2023-04-19T14:10:48.141Z,41.74
2023-04-19T14:13:17.577Z,41.41
2023-04-19T14:15:46.345Z,39.80
2023-04-19T14:18:14.406Z,39.79
2023-04-19T14:20:42.491Z,39.85
2023-04-19T14:23:10.596Z,39.71
2023-04-19T14:25:38.653Z,40.30
2023-04-19T14:28:06.708Z,40.38
2023-04-19T14:30:36.163Z,41.16
2023-04-19T14:33:04.392Z,40.66
2023-04-19T14:35:32.654Z,40.17
2023-04-19T14:38:00.671Z,40.04
2023-04-19T14:40:28.765Z,40.78
2023-04-19T14:42:56.808Z,40.25
2023-04-19T14:45:24.853Z,40.56
2023-04-19T14:47:54.328Z,41.12
2023-04-19T14:50:22.456Z,41.55
2023-04-19T14:52:50.516Z,42.47
2023-04-19T14:55:18.786Z,45.81
2023-04-19T14:57:46.846Z,48.60
2023-04-19T15:00:16.236Z,52.95
2023-04-19T15:02:44.448Z,57.79
2023-04-19T15:05:14.182Z,63.14
2023-04-19T15:07:42.456Z,65.16
2023-04-19T15:10:11.500Z,63.78
2023-04-19T15:12:39.543Z,64.60
2023-04-19T15:15:09.182Z,62.98
2023-04-19T15:17:37.280Z,62.28
2023-04-19T15:20:06.575Z,64.14
2023-04-19T15:22:36.025Z,63.89
2023-04-19T15:25:04.414Z,65.78
2023-04-19T15:27:32.775Z,66.44
2023-04-19T15:30:00.871Z,67.80
2023-04-19T15:32:30.921Z,65.91
2023-04-19T15:34:58.939Z,66.59
2023-04-19T15:37:27.482Z,65.21
2023-04-19T15:39:56.955Z,65.03
2023-04-19T15:42:25.097Z,65.22
2023-04-19T15:44:53.186Z,65.80
2023-04-19T15:47:21.286Z,63.69
2023-04-19T15:49:49.286Z,60.36
2023-04-19T15:52:18.782Z,59.70
2023-04-19T15:54:46.962Z,59.67
2023-04-19T15:57:16.330Z,58.93
2023-04-19T15:59:44.421Z,57.26
2023-04-19T16:02:12.574Z,54.42
2023-04-19T16:04:40.873Z,55.90
2023-04-19T16:07:09.018Z,54.44
2023-04-19T16:09:37.043Z,54.56
2023-04-19T16:12:05.544Z,53.66
2023-04-19T16:14:34.951Z,51.60
2023-04-19T16:17:02.976Z,51.23
2023-04-19T16:19:31.034Z,50.92
2023-04-19T16:22:01.975Z,51.21
2023-04-19T16:24:30.148Z,51.00
2023-04-19T16:26:58.769Z,50.78
2023-04-19T16:29:26.867Z,50.54
2023-04-19T16:31:56.420Z,51.48
2023-04-19T16:34:25.403Z,51.28
2023-04-19T16:36:55.310Z,52.51
2023-04-19T16:39:23.374Z,52.19
2023-04-19T16:41:51.648Z,52.77
2023-04-19T16:44:19.680Z,52.09
2023-04-19T16:46:47.742Z,53.01
2023-04-19T16:49:17.724Z,54.28
2023-04-19T16:51:46.952Z,54.80
2023-04-19T16:54:15.071Z,54.43
2023-04-19T16:56:43.433Z,54.33
2023-04-19T16:59:11.488Z,55.32
2023-04-19T17:01:39.570Z,55.13
2023-04-19T17:04:07.874Z,55.80
2023-04-19T17:06:37.531Z,56.16
2023-04-19T17:09:06.076Z,56.23
2023-04-19T17:11:34.648Z,56.30
2023-04-19T17:14:02.684Z,56.04
2023-04-19T17:16:30.779Z,56.43
2023-04-19T17:18:58.826Z,55.85
2023-04-19T17:21:27.485Z,55.76
2023-04-19T17:23:56.937Z,55.92
2023-04-19T17:26:25.024Z,56.37
2023-04-19T17:28:53.100Z,56.60
2023-04-19T17:31:21.239Z,56.45
2023-04-19T17:33:49.330Z,56.01
2023-04-19T17:36:18.555Z,53.84
2023-04-19T17:38:46.726Z,53.97
2023-04-19T17:41:16.975Z,52.70
2023-04-19T17:43:45.594Z,52.87
2023-04-19T17:46:15.060Z,52.73
2023-04-19T17:48:43.248Z,52.96
2023-04-19T17:51:11.411Z,52.46
2023-04-19T17:53:39.737Z,52.87
2023-04-19T17:56:07.873Z,53.57
2023-04-19T17:58:37.374Z,54.69
2023-04-19T18:01:06.505Z,55.53
2023-04-19T18:03:34.806Z,56.60
2023-04-19T18:06:03.085Z,57.22
2023-04-19T18:08:31.192Z,57.63
2023-04-19T18:10:59.287Z,58.77
2023-04-19T18:13:27.538Z,58.63
2023-04-19T18:15:57.019Z,58.76
2023-04-19T18:18:25.111Z,59.47
2023-04-19T18:20:53.152Z,59.55
2023-04-19T18:23:21.229Z,59.22
2023-04-19T18:25:54.984Z,59.39
2023-04-19T18:28:23.522Z,59.38
2023-04-19T18:30:51.630Z,61.72
2023-04-19T18:33:21.052Z,63.61
2023-04-19T18:35:49.209Z,65.20
2023-04-19T18:38:17.335Z,66.37
2023-04-19T18:40:45.434Z,67.54
2023-04-19T18:43:13.565Z,68.34
2023-04-19T18:45:41.779Z,68.84
2023-04-19T18:48:10.254Z,69.96
2023-04-19T18:50:39.827Z,70.73
2023-04-19T18:53:07.935Z,70.73
2023-04-19T18:55:36.008Z,71.55
2023-04-19T18:58:04.157Z,71.90
2023-04-19T19:00:32.234Z,71.98
2023-04-19T19:03:02.018Z,71.97
2023-04-19T19:05:32.012Z,72.02
2023-04-19T19:08:01.984Z,72.69
2023-04-19T19:13:01.418Z,74.74
2023-04-19T19:15:29.900Z,75.69
2023-04-19T19:17:58.153Z,75.12
2023-04-19T19:20:26.480Z,76.59
2023-04-19T19:22:54.796Z,76.99
2023-04-19T19:25:24.960Z,76.91
2023-04-19T19:30:29.456Z,77.01
2023-04-19T19:32:57.641Z,77.36
2023-04-19T19:35:25.795Z,77.87
2023-04-19T19:37:53.904Z,78.38
2023-04-19T19:40:23.541Z,77.83
2023-04-19T19:42:51.573Z,77.78
2023-04-19T19:45:19.943Z,76.86
2023-04-19T19:47:49.969Z,76.85
2023-04-19T19:52:51.183Z,77.74
2023-04-19T19:55:19.352Z,77.31
2023-04-19T19:58:21.011Z,78.36
2023-04-19T20:00:46.219Z,77.52
2023-04-19T20:03:24.654Z,78.15
2023-04-19T20:06:05.509Z,78.59
2023-04-19T20:08:49.931Z,78.75
2023-04-19T20:11:18.159Z,79.66
2023-04-19T20:13:47.661Z,78.82
2023-04-19T20:16:18.284Z,78.72
2023-04-19T20:18:48.970Z,78.17
2023-04-19T20:21:19.491Z,78.36
2023-04-19T20:23:47.941Z,79.38
2023-04-19T20:26:16.224Z,76.53
2023-04-19T20:28:44.335Z,76.17
2023-04-19T20:31:13.818Z,76.86
2023-04-19T20:33:42.106Z,78.06
2023-04-19T20:36:10.500Z,78.01
2023-04-19T20:38:38.644Z,79.24
2023-04-19T20:41:06.876Z,79.73
2023-04-19T20:43:35.270Z,78.87
2023-04-19T20:46:03.472Z,78.55
2023-04-19T20:48:33.042Z,77.92
2023-04-19T20:51:01.217Z,78.30
2023-04-19T20:53:29.334Z,77.71
2023-04-19T20:55:57.534Z,78.01
2023-04-19T20:58:25.651Z,78.08
2023-04-19T21:00:53.794Z,78.79
2023-04-19T21:03:22.092Z,77.83
2023-04-19T21:05:51.761Z,77.68
2023-04-19T21:08:19.879Z,77.72
2023-04-19T21:10:47.944Z,77.20
2023-04-19T21:13:16.119Z,76.36
2023-04-19T21:15:44.333Z,77.19
2023-04-19T21:18:12.449Z,78.25
2023-04-19T21:20:40.734Z,78.32
2023-04-19T21:23:10.322Z,77.90
2023-04-19T21:25:38.593Z,77.78
2023-04-19T21:28:06.751Z,77.94
2023-04-19T21:30:38.605Z,79.03
2023-04-19T21:33:06.719Z,80.23
2023-04-19T21:35:35.566Z,81.16
2023-04-19T21:38:04.018Z,80.03
2023-04-19T21:40:33.585Z,80.40
2023-04-19T21:43:01.692Z,80.69
2023-04-19T21:45:29.906Z,81.14
2023-04-19T21:47:58.065Z,81.04
2023-04-19T21:50:26.262Z,80.76
2023-04-19T21:52:54.371Z,80.49
2023-04-19T21:55:22.804Z,79.12
2023-04-19T21:57:52.350Z,78.21
2023-04-19T22:00:20.486Z,78.39
2023-04-19T22:02:48.773Z,79.11
2023-04-19T22:05:17.193Z,78.16
2023-04-19T22:07:47.165Z,77.35
2023-04-19T22:10:15.269Z,76.57
2023-04-19T22:12:57.433Z,77.40
2023-04-19T22:15:28.402Z,77.99
2023-04-19T22:17:58.124Z,78.13
2023-04-19T22:20:27.109Z,76.83
2023-04-19T22:22:55.517Z,76.32
2023-04-19T22:25:23.652Z,76.45
2023-04-19T22:27:51.781Z,77.02
2023-04-19T22:30:19.889Z,77.48
2023-04-19T22:32:49.812Z,77.89
2023-04-19T22:35:19.080Z,78.70
2023-04-19T22:37:48.228Z,78.52
2023-04-19T22:40:16.412Z,78.77
2023-04-19T22:42:44.552Z,78.49
2023-04-19T22:45:12.998Z,77.19
2023-04-19T22:47:41.170Z,77.18
2023-04-19T22:50:11.936Z,78.84
2023-04-19T22:52:40.888Z,78.43
2023-04-19T22:55:10.165Z,79.78
2023-04-19T22:57:38.326Z,80.18
2023-04-19T23:00:10.602Z,80.80
2023-04-19T23:02:39.434Z,81.45
2023-04-19T23:05:11.234Z,81.41
2023-04-19T23:07:41.809Z,81.10
2023-04-19T23:10:11.376Z,82.27
2023-04-19T23:12:39.958Z,81.98
2023-04-19T23:15:11.001Z,81.24
2023-04-19T23:17:40.333Z,81.38
2023-04-19T23:20:11.445Z,80.64
2023-04-19T23:22:40.067Z,81.46
2023-04-19T23:25:09.860Z,81.88
2023-04-19T23:27:38.061Z,82.24
2023-04-19T23:30:08.937Z,81.76
2023-04-19T23:32:37.147Z,82.24
2023-04-19T23:35:06.052Z,82.28
2023-04-19T23:37:36.639Z,81.96
2023-04-19T23:40:06.197Z,81.93
2023-04-19T23:42:34.327Z,82.20
2023-04-19T23:45:02.426Z,81.83
2023-04-19T23:47:30.580Z,82.12
2023-04-19T23:49:58.744Z,82.09
2023-04-19T23:52:27.495Z,81.51
2023-04-19T23:54:56.939Z,81.73
2023-04-19T23:57:25.078Z,82.03
2023-04-19T23:59:53.186Z,82.33
